Terminal Aerodrome Forecast
Issued by NWS

Current Version | Previous Version | Graphics & Text | Print | Product List | Glossary On
Versions: 1 2 3 4 5 6 7 8 9 10 11 12 13 14 15 16 17 18 19 20
000
FTUS41 KPBZ 261956 AAA
TAFMGW
TAF AMD
KMGW 261956Z 2620/2718 12010KT P6SM -SHRA BKN050
     FM262100 16012G18KT P6SM BKN045
     FM270000 18008KT 6SM -SHRA OVC025
     FM270700 18005KT P6SM OVC015=

USA.gov is the U.S. government's official web portal to all federal, state and local government web resources and services.